sensor_id;sensor_type;location;lat;lon;timestamp;pressure;altitude;pressure_sealevel;temperature
19666;BMP180;9980;51.020;7.772;2023-05-27T00:02:01;98635.00;;;14.50
19666;BMP180;9980;51.020;7.772;2023-05-27T00:04:28;98614.00;;;14.40
19666;BMP180;9980;51.020;7.772;2023-05-27T00:06:55;98620.00;;;14.40
19666;BMP180;9980;51.020;7.772;2023-05-27T00:09:22;98622.00;;;14.40
19666;BMP180;9980;51.020;7.772;2023-05-27T00:11:49;98610.00;;;14.30
19666;BMP180;9980;51.020;7.772;2023-05-27T00:14:16;98616.00;;;14.30
19666;BMP180;9980;51.020;7.772;2023-05-27T00:16:44;98607.00;;;14.30
19666;BMP180;9980;51.020;7.772;2023-05-27T00:19:11;98617.00;;;14.20
19666;BMP180;9980;51.020;7.772;2023-05-27T00:21:38;98610.00;;;14.20
19666;BMP180;9980;51.020;7.772;2023-05-27T00:24:05;98608.00;;;14.20
19666;BMP180;9980;51.020;7.772;2023-05-27T00:26:32;98611.00;;;14.10
19666;BMP180;9980;51.020;7.772;2023-05-27T00:29:00;98619.00;;;14.10
19666;BMP180;9980;51.020;7.772;2023-05-27T00:31:27;98620.00;;;14.00
19666;BMP180;9980;51.020;7.772;2023-05-27T00:33:54;98618.00;;;14.00
19666;BMP180;9980;51.020;7.772;2023-05-27T00:36:21;98613.00;;;13.90
19666;BMP180;9980;51.020;7.772;2023-05-27T00:38:48;98610.00;;;13.90
19666;BMP180;9980;51.020;7.772;2023-05-27T00:41:15;98612.00;;;13.90
19666;BMP180;9980;51.020;7.772;2023-05-27T00:43:42;98621.00;;;13.80
19666;BMP180;9980;51.020;7.772;2023-05-27T00:46:09;98615.00;;;13.80
19666;BMP180;9980;51.020;7.772;2023-05-27T00:48:36;98619.00;;;13.70
19666;BMP180;9980;51.020;7.772;2023-05-27T00:51:03;98618.00;;;13.70
19666;BMP180;9980;51.020;7.772;2023-05-27T00:53:43;98618.00;;;13.70
19666;BMP180;9980;51.020;7.772;2023-05-27T00:56:12;98612.00;;;13.60
19666;BMP180;9980;51.020;7.772;2023-05-27T00:58:43;98617.00;;;13.60
19666;BMP180;9980;51.020;7.772;2023-05-27T01:01:10;98615.00;;;13.50
19666;BMP180;9980;51.020;7.772;2023-05-27T01:03:38;98609.00;;;13.50
19666;BMP180;9980;51.020;7.772;2023-05-27T01:06:30;98617.00;;;13.40
19666;BMP180;9980;51.020;7.772;2023-05-27T01:09:17;98602.00;;;13.30
19666;BMP180;9980;51.020;7.772;2023-05-27T01:14:25;98622.00;;;13.30
19666;BMP180;9980;51.020;7.772;2023-05-27T01:16:56;98620.00;;;13.20
19666;BMP180;9980;51.020;7.772;2023-05-27T01:19:34;98605.00;;;13.20
19666;BMP180;9980;51.020;7.772;2023-05-27T01:22:07;98602.00;;;13.10
19666;BMP180;9980;51.020;7.772;2023-05-27T01:24:34;98597.00;;;13.10
19666;BMP180;9980;51.020;7.772;2023-05-27T01:27:00;98598.00;;;13.10
19666;BMP180;9980;51.020;7.772;2023-05-27T01:29:29;98600.00;;;13.00
19666;BMP180;9980;51.020;7.772;2023-05-27T01:38:20;98585.00;;;12.80
19666;BMP180;9980;51.020;7.772;2023-05-27T01:40:49;98588.00;;;12.80
19666;BMP180;9980;51.020;7.772;2023-05-27T01:43:18;98594.00;;;12.80
19666;BMP180;9980;51.020;7.772;2023-05-27T01:45:45;98601.00;;;12.70
19666;BMP180;9980;51.020;7.772;2023-05-27T01:48:13;98591.00;;;12.70
19666;BMP180;9980;51.020;7.772;2023-05-27T01:50:40;98594.00;;;12.70
19666;BMP180;9980;51.020;7.772;2023-05-27T01:53:07;98592.00;;;12.60
19666;BMP180;9980;51.020;7.772;2023-05-27T01:55:34;98592.00;;;12.60
19666;BMP180;9980;51.020;7.772;2023-05-27T01:58:01;98599.00;;;12.50
19666;BMP180;9980;51.020;7.772;2023-05-27T02:00:28;98601.00;;;12.50
19666;BMP180;9980;51.020;7.772;2023-05-27T02:02:55;98591.00;;;12.40
19666;BMP180;9980;51.020;7.772;2023-05-27T02:05:24;98589.00;;;12.40
19666;BMP180;9980;51.020;7.772;2023-05-27T02:07:51;98591.00;;;12.30
19666;BMP180;9980;51.020;7.772;2023-05-27T02:10:18;98588.00;;;12.30
19666;BMP180;9980;51.020;7.772;2023-05-27T02:12:46;98584.00;;;12.30
19666;BMP180;9980;51.020;7.772;2023-05-27T02:15:15;98594.00;;;12.20
19666;BMP180;9980;51.020;7.772;2023-05-27T02:17:42;98594.00;;;12.20
19666;BMP180;9980;51.020;7.772;2023-05-27T02:20:15;98591.00;;;12.10
19666;BMP180;9980;51.020;7.772;2023-05-27T02:22:42;98587.00;;;12.10
19666;BMP180;9980;51.020;7.772;2023-05-27T02:25:09;98593.00;;;12.10
19666;BMP180;9980;51.020;7.772;2023-05-27T02:27:38;98581.00;;;12.00
19666;BMP180;9980;51.020;7.772;2023-05-27T02:30:05;98587.00;;;12.00
19666;BMP180;9980;51.020;7.772;2023-05-27T02:32:33;98567.00;;;12.00
19666;BMP180;9980;51.020;7.772;2023-05-27T02:35:00;98570.00;;;11.90
19666;BMP180;9980;51.020;7.772;2023-05-27T02:37:27;98585.00;;;11.90
19666;BMP180;9980;51.020;7.772;2023-05-27T02:39:54;98578.00;;;11.80
19666;BMP180;9980;51.020;7.772;2023-05-27T02:42:22;98580.00;;;11.80
19666;BMP180;9980;51.020;7.772;2023-05-27T02:44:50;98580.00;;;11.70
19666;BMP180;9980;51.020;7.772;2023-05-27T02:47:17;98590.00;;;11.70
19666;BMP180;9980;51.020;7.772;2023-05-27T02:49:43;98573.00;;;11.70
19666;BMP180;9980;51.020;7.772;2023-05-27T02:52:11;98574.00;;;11.60
19666;BMP180;9980;51.020;7.772;2023-05-27T02:54:38;98579.00;;;11.60
19666;BMP180;9980;51.020;7.772;2023-05-27T02:57:05;98570.00;;;11.60
19666;BMP180;9980;51.020;7.772;2023-05-27T02:59:31;98569.00;;;11.50
19666;BMP180;9980;51.020;7.772;2023-05-27T03:01:58;98570.00;;;11.50
19666;BMP180;9980;51.020;7.772;2023-05-27T03:04:25;98574.00;;;11.50
19666;BMP180;9980;51.020;7.772;2023-05-27T03:06:52;98586.00;;;11.40
19666;BMP180;9980;51.020;7.772;2023-05-27T03:09:21;98573.00;;;11.40
19666;BMP180;9980;51.020;7.772;2023-05-27T03:11:48;98591.00;;;11.40
19666;BMP180;9980;51.020;7.772;2023-05-27T03:14:14;98575.00;;;11.30
19666;BMP180;9980;51.020;7.772;2023-05-27T03:16:41;98584.00;;;11.30
19666;BMP180;9980;51.020;7.772;2023-05-27T03:19:09;98583.00;;;11.20
19666;BMP180;9980;51.020;7.772;2023-05-27T03:21:36;98576.00;;;11.20
19666;BMP180;9980;51.020;7.772;2023-05-27T03:24:03;98584.00;;;11.20
19666;BMP180;9980;51.020;7.772;2023-05-27T03:26:30;98574.00;;;11.10
19666;BMP180;9980;51.020;7.772;2023-05-27T03:29:00;98562.00;;;11.10
19666;BMP180;9980;51.020;7.772;2023-05-27T03:31:27;98573.00;;;11.10
19666;BMP180;9980;51.020;7.772;2023-05-27T03:34:00;98564.00;;;11.00
19666;BMP180;9980;51.020;7.772;2023-05-27T03:36:27;98584.00;;;11.00
19666;BMP180;9980;51.020;7.772;2023-05-27T03:38:56;98569.00;;;11.00
19666;BMP180;9980;51.020;7.772;2023-05-27T03:41:25;98565.00;;;10.90
19666;BMP180;9980;51.020;7.772;2023-05-27T03:43:53;98560.00;;;10.90
19666;BMP180;9980;51.020;7.772;2023-05-27T03:46:21;98578.00;;;10.90
19666;BMP180;9980;51.020;7.772;2023-05-27T03:48:48;98565.00;;;10.80
19666;BMP180;9980;51.020;7.772;2023-05-27T03:51:15;98570.00;;;10.80
19666;BMP180;9980;51.020;7.772;2023-05-27T03:53:44;98572.00;;;10.80
19666;BMP180;9980;51.020;7.772;2023-05-27T03:56:11;98574.00;;;10.80
19666;BMP180;9980;51.020;7.772;2023-05-27T03:58:37;98568.00;;;10.80
19666;BMP180;9980;51.020;7.772;2023-05-27T04:01:04;98576.00;;;10.80
19666;BMP180;9980;51.020;7.772;2023-05-27T04:03:32;98576.00;;;10.80
19666;BMP180;9980;51.020;7.772;2023-05-27T04:06:00;98556.00;;;10.70
19666;BMP180;9980;51.020;7.772;2023-05-27T04:08:27;98561.00;;;10.70
19666;BMP180;9980;51.020;7.772;2023-05-27T04:10:55;98581.00;;;10.70
19666;BMP180;9980;51.020;7.772;2023-05-27T04:13:24;98572.00;;;10.70
19666;BMP180;9980;51.020;7.772;2023-05-27T04:15:51;98567.00;;;10.70
19666;BMP180;9980;51.020;7.772;2023-05-27T04:18:20;98566.00;;;10.70
19666;BMP180;9980;51.020;7.772;2023-05-27T04:20:47;98567.00;;;10.70
19666;BMP180;9980;51.020;7.772;2023-05-27T04:23:16;98579.00;;;10.70
19666;BMP180;9980;51.020;7.772;2023-05-27T04:25:43;98566.00;;;10.70
19666;BMP180;9980;51.020;7.772;2023-05-27T04:28:11;98564.00;;;10.80
19666;BMP180;9980;51.020;7.772;2023-05-27T04:30:42;98566.00;;;10.80
19666;BMP180;9980;51.020;7.772;2023-05-27T04:33:15;98569.00;;;10.80
19666;BMP180;9980;51.020;7.772;2023-05-27T04:35:43;98574.00;;;10.80
19666;BMP180;9980;51.020;7.772;2023-05-27T04:38:11;98575.00;;;10.80
19666;BMP180;9980;51.020;7.772;2023-05-27T04:40:52;98569.00;;;10.80
19666;BMP180;9980;51.020;7.772;2023-05-27T04:43:30;98558.00;;;10.90
19666;BMP180;9980;51.020;7.772;2023-05-27T04:45:57;98571.00;;;10.90
19666;BMP180;9980;51.020;7.772;2023-05-27T04:48:26;98561.00;;;11.00
19666;BMP180;9980;51.020;7.772;2023-05-27T04:50:53;98561.00;;;11.10
19666;BMP180;9980;51.020;7.772;2023-05-27T04:53:21;98568.00;;;11.30
19666;BMP180;9980;51.020;7.772;2023-05-27T04:55:49;98565.00;;;11.40
19666;BMP180;9980;51.020;7.772;2023-05-27T04:58:17;98566.00;;;11.50
19666;BMP180;9980;51.020;7.772;2023-05-27T05:00:44;98564.00;;;11.60
19666;BMP180;9980;51.020;7.772;2023-05-27T05:03:22;98577.00;;;11.70
19666;BMP180;9980;51.020;7.772;2023-05-27T05:05:54;98565.00;;;11.80
19666;BMP180;9980;51.020;7.772;2023-05-27T05:08:22;98562.00;;;12.00
19666;BMP180;9980;51.020;7.772;2023-05-27T05:10:51;98574.00;;;12.10
19666;BMP180;9980;51.020;7.772;2023-05-27T05:13:18;98561.00;;;12.20
19666;BMP180;9980;51.020;7.772;2023-05-27T05:15:46;98568.00;;;12.30
19666;BMP180;9980;51.020;7.772;2023-05-27T05:18:14;98561.00;;;12.40
19666;BMP180;9980;51.020;7.772;2023-05-27T05:20:43;98568.00;;;12.50
19666;BMP180;9980;51.020;7.772;2023-05-27T05:23:12;98557.00;;;12.60
19666;BMP180;9980;51.020;7.772;2023-05-27T05:25:39;98563.00;;;12.80
19666;BMP180;9980;51.020;7.772;2023-05-27T05:28:07;98560.00;;;12.90
19666;BMP180;9980;51.020;7.772;2023-05-27T05:30:36;98560.00;;;12.90
19666;BMP180;9980;51.020;7.772;2023-05-27T05:33:04;98547.00;;;13.10
19666;BMP180;9980;51.020;7.772;2023-05-27T05:35:32;98559.00;;;13.10
19666;BMP180;9980;51.020;7.772;2023-05-27T05:38:17;98568.00;;;13.30
19666;BMP180;9980;51.020;7.772;2023-05-27T05:40:44;98556.00;;;13.30
19666;BMP180;9980;51.020;7.772;2023-05-27T05:43:16;98558.00;;;13.50
19666;BMP180;9980;51.020;7.772;2023-05-27T05:45:44;98572.00;;;13.60
19666;BMP180;9980;51.020;7.772;2023-05-27T05:48:11;98569.00;;;13.70
19666;BMP180;9980;51.020;7.772;2023-05-27T05:50:40;98558.00;;;13.80
19666;BMP180;9980;51.020;7.772;2023-05-27T05:53:09;98556.00;;;13.90
19666;BMP180;9980;51.020;7.772;2023-05-27T05:55:37;98552.00;;;14.00
19666;BMP180;9980;51.020;7.772;2023-05-27T05:58:04;98550.00;;;14.10
19666;BMP180;9980;51.020;7.772;2023-05-27T06:00:31;98565.00;;;14.20
19666;BMP180;9980;51.020;7.772;2023-05-27T06:03:18;98558.00;;;14.30
19666;BMP180;9980;51.020;7.772;2023-05-27T06:05:48;98552.00;;;14.40
19666;BMP180;9980;51.020;7.772;2023-05-27T06:08:15;98574.00;;;14.50
19666;BMP180;9980;51.020;7.772;2023-05-27T06:10:50;98560.00;;;14.60
19666;BMP180;9980;51.020;7.772;2023-05-27T06:13:18;98569.00;;;14.70
19666;BMP180;9980;51.020;7.772;2023-05-27T06:15:47;98564.00;;;14.90
19666;BMP180;9980;51.020;7.772;2023-05-27T06:18:14;98562.00;;;15.00
19666;BMP180;9980;51.020;7.772;2023-05-27T06:20:41;98558.00;;;15.10
19666;BMP180;9980;51.020;7.772;2023-05-27T06:23:08;98549.00;;;15.20
19666;BMP180;9980;51.020;7.772;2023-05-27T06:26:04;98573.00;;;15.30
19666;BMP180;9980;51.020;7.772;2023-05-27T06:28:36;98556.00;;;15.50
19666;BMP180;9980;51.020;7.772;2023-05-27T06:31:03;98559.00;;;15.60
19666;BMP180;9980;51.020;7.772;2023-05-27T06:33:31;98558.00;;;15.70
19666;BMP180;9980;51.020;7.772;2023-05-27T06:35:58;98550.00;;;15.90
19666;BMP180;9980;51.020;7.772;2023-05-27T06:38:25;98544.00;;;16.00
19666;BMP180;9980;51.020;7.772;2023-05-27T06:40:54;98559.00;;;16.10
19666;BMP180;9980;51.020;7.772;2023-05-27T06:43:21;98539.00;;;16.30
19666;BMP180;9980;51.020;7.772;2023-05-27T06:45:54;98527.00;;;16.40
19666;BMP180;9980;51.020;7.772;2023-05-27T06:48:47;98525.00;;;16.60
19666;BMP180;9980;51.020;7.772;2023-05-27T06:51:14;98524.00;;;16.70
19666;BMP180;9980;51.020;7.772;2023-05-27T06:53:42;98544.00;;;16.80
19666;BMP180;9980;51.020;7.772;2023-05-27T06:56:12;98544.00;;;17.00
19666;BMP180;9980;51.020;7.772;2023-05-27T06:58:39;98551.00;;;17.10
19666;BMP180;9980;51.020;7.772;2023-05-27T07:01:10;98536.00;;;17.20
19666;BMP180;9980;51.020;7.772;2023-05-27T07:03:41;98545.00;;;17.40
19666;BMP180;9980;51.020;7.772;2023-05-27T07:06:12;98522.00;;;17.50
19666;BMP180;9980;51.020;7.772;2023-05-27T07:08:46;98520.00;;;17.60
19666;BMP180;9980;51.020;7.772;2023-05-27T07:11:19;98545.00;;;17.80
19666;BMP180;9980;51.020;7.772;2023-05-27T07:13:47;98531.00;;;17.90
19666;BMP180;9980;51.020;7.772;2023-05-27T07:16:18;98537.00;;;18.00
19666;BMP180;9980;51.020;7.772;2023-05-27T07:18:46;98530.00;;;18.20
19666;BMP180;9980;51.020;7.772;2023-05-27T07:21:13;98525.00;;;18.20
19666;BMP180;9980;51.020;7.772;2023-05-27T07:23:40;98540.00;;;18.40
19666;BMP180;9980;51.020;7.772;2023-05-27T07:26:22;98540.00;;;18.50
19666;BMP180;9980;51.020;7.772;2023-05-27T07:28:50;98537.00;;;18.60
19666;BMP180;9980;51.020;7.772;2023-05-27T07:31:29;98522.00;;;18.70
19666;BMP180;9980;51.020;7.772;2023-05-27T07:34:02;98527.00;;;18.80
19666;BMP180;9980;51.020;7.772;2023-05-27T07:36:29;98518.00;;;18.90
19666;BMP180;9980;51.020;7.772;2023-05-27T07:38:56;98516.00;;;19.00
19666;BMP180;9980;51.020;7.772;2023-05-27T07:41:23;98515.00;;;19.10
19666;BMP180;9980;51.020;7.772;2023-05-27T07:43:51;98514.00;;;19.20
19666;BMP180;9980;51.020;7.772;2023-05-27T07:46:18;98510.00;;;19.30
19666;BMP180;9980;51.020;7.772;2023-05-27T07:48:45;98516.00;;;19.50
19666;BMP180;9980;51.020;7.772;2023-05-27T07:51:12;98501.00;;;19.60
19666;BMP180;9980;51.020;7.772;2023-05-27T07:53:40;98523.00;;;19.70
19666;BMP180;9980;51.020;7.772;2023-05-27T07:56:07;98493.00;;;19.80
19666;BMP180;9980;51.020;7.772;2023-05-27T07:58:34;98496.00;;;19.90
19666;BMP180;9980;51.020;7.772;2023-05-27T08:01:10;98487.00;;;20.00
19666;BMP180;9980;51.020;7.772;2023-05-27T08:03:40;98493.00;;;20.10
19666;BMP180;9980;51.020;7.772;2023-05-27T08:06:17;98487.00;;;20.20
19666;BMP180;9980;51.020;7.772;2023-05-27T08:08:59;98480.00;;;20.30
19666;BMP180;9980;51.020;7.772;2023-05-27T08:11:59;98471.00;;;20.40
19666;BMP180;9980;51.020;7.772;2023-05-27T08:14:29;98473.00;;;20.50
19666;BMP180;9980;51.020;7.772;2023-05-27T08:17:26;98473.00;;;20.60
19666;BMP180;9980;51.020;7.772;2023-05-27T08:20:02;98471.00;;;20.70
19666;BMP180;9980;51.020;7.772;2023-05-27T08:22:41;98467.00;;;20.90
19666;BMP180;9980;51.020;7.772;2023-05-27T08:25:22;98463.00;;;21.00
19666;BMP180;9980;51.020;7.772;2023-05-27T08:27:56;98453.00;;;21.10
19666;BMP180;9980;51.020;7.772;2023-05-27T08:30:34;98448.00;;;21.30
19666;BMP180;9980;51.020;7.772;2023-05-27T08:33:22;98443.00;;;21.40
19666;BMP180;9980;51.020;7.772;2023-05-27T08:35:49;98444.00;;;21.50
19666;BMP180;9980;51.020;7.772;2023-05-27T08:38:17;98439.00;;;21.60
19666;BMP180;9980;51.020;7.772;2023-05-27T08:40:44;98442.00;;;21.70
19666;BMP180;9980;51.020;7.772;2023-05-27T08:43:11;98438.00;;;21.80
19666;BMP180;9980;51.020;7.772;2023-05-27T08:45:42;98440.00;;;21.90
19666;BMP180;9980;51.020;7.772;2023-05-27T08:48:12;98436.00;;;22.00
19666;BMP180;9980;51.020;7.772;2023-05-27T08:50:41;98428.00;;;22.10
19666;BMP180;9980;51.020;7.772;2023-05-27T08:53:09;98430.00;;;22.20
19666;BMP180;9980;51.020;7.772;2023-05-27T08:55:39;98428.00;;;22.30
19666;BMP180;9980;51.020;7.772;2023-05-27T08:58:08;98424.00;;;22.40
19666;BMP180;9980;51.020;7.772;2023-05-27T09:00:40;98418.00;;;22.50
19666;BMP180;9980;51.020;7.772;2023-05-27T09:03:15;98426.00;;;22.70
19666;BMP180;9980;51.020;7.772;2023-05-27T09:05:44;98432.00;;;22.80
19666;BMP180;9980;51.020;7.772;2023-05-27T09:08:12;98424.00;;;22.80
19666;BMP180;9980;51.020;7.772;2023-05-27T09:10:41;98423.00;;;22.90
19666;BMP180;9980;51.020;7.772;2023-05-27T09:13:08;98428.00;;;23.10
19666;BMP180;9980;51.020;7.772;2023-05-27T09:15:36;98412.00;;;23.20
19666;BMP180;9980;51.020;7.772;2023-05-27T09:18:05;98407.00;;;23.30
19666;BMP180;9980;51.020;7.772;2023-05-27T09:20:32;98404.00;;;23.30
19666;BMP180;9980;51.020;7.772;2023-05-27T09:23:02;98411.00;;;23.40
19666;BMP180;9980;51.020;7.772;2023-05-27T09:25:30;98405.00;;;23.60
19666;BMP180;9980;51.020;7.772;2023-05-27T09:27:57;98405.00;;;23.70
19666;BMP180;9980;51.020;7.772;2023-05-27T09:30:24;98421.00;;;23.80
19666;BMP180;9980;51.020;7.772;2023-05-27T09:33:01;98418.00;;;23.90
19666;BMP180;9980;51.020;7.772;2023-05-27T09:35:37;98405.00;;;23.90
19666;BMP180;9980;51.020;7.772;2023-05-27T09:38:09;98400.00;;;24.00
19666;BMP180;9980;51.020;7.772;2023-05-27T09:40:36;98404.00;;;24.10
19666;BMP180;9980;51.020;7.772;2023-05-27T09:43:27;98397.00;;;24.10
19666;BMP180;9980;51.020;7.772;2023-05-27T09:46:03;98394.00;;;24.20
19666;BMP180;9980;51.020;7.772;2023-05-27T09:48:31;98393.00;;;24.30
19666;BMP180;9980;51.020;7.772;2023-05-27T09:51:03;98377.00;;;24.40
19666;BMP180;9980;51.020;7.772;2023-05-27T09:53:31;98388.00;;;24.50
19666;BMP180;9980;51.020;7.772;2023-05-27T09:55:58;98381.00;;;24.60
19666;BMP180;9980;51.020;7.772;2023-05-27T09:58:25;98373.00;;;24.70
19666;BMP180;9980;51.020;7.772;2023-05-27T10:00:55;98376.00;;;24.80
19666;BMP180;9980;51.020;7.772;2023-05-27T10:03:22;98385.00;;;24.90
19666;BMP180;9980;51.020;7.772;2023-05-27T10:05:56;98367.00;;;25.00
19666;BMP180;9980;51.020;7.772;2023-05-27T10:08:24;98372.00;;;25.10
19666;BMP180;9980;51.020;7.772;2023-05-27T10:10:53;98366.00;;;25.20
19666;BMP180;9980;51.020;7.772;2023-05-27T10:13:23;98362.00;;;25.20
19666;BMP180;9980;51.020;7.772;2023-05-27T10:15:52;98366.00;;;25.30
19666;BMP180;9980;51.020;7.772;2023-05-27T10:18:28;98361.00;;;25.30
19666;BMP180;9980;51.020;7.772;2023-05-27T10:20:58;98354.00;;;25.40
19666;BMP180;9980;51.020;7.772;2023-05-27T10:23:28;98357.00;;;25.50
19666;BMP180;9980;51.020;7.772;2023-05-27T10:26:07;98353.00;;;25.60
19666;BMP180;9980;51.020;7.772;2023-05-27T10:28:37;98356.00;;;25.60
19666;BMP180;9980;51.020;7.772;2023-05-27T10:31:11;98345.00;;;25.70
19666;BMP180;9980;51.020;7.772;2023-05-27T10:33:43;98348.00;;;25.70
19666;BMP180;9980;51.020;7.772;2023-05-27T10:36:17;98342.00;;;25.80
19666;BMP180;9980;51.020;7.772;2023-05-27T10:41:27;98341.00;;;25.90
19666;BMP180;9980;51.020;7.772;2023-05-27T10:43:58;98333.00;;;26.00
19666;BMP180;9980;51.020;7.772;2023-05-27T10:46:26;98342.00;;;26.10
19666;BMP180;9980;51.020;7.772;2023-05-27T10:48:53;98342.00;;;26.20
19666;BMP180;9980;51.020;7.772;2023-05-27T10:51:31;98337.00;;;26.20
19666;BMP180;9980;51.020;7.772;2023-05-27T10:54:03;98337.00;;;26.30
19666;BMP180;9980;51.020;7.772;2023-05-27T10:56:52;98326.00;;;26.30
19666;BMP180;9980;51.020;7.772;2023-05-27T10:59:22;98325.00;;;26.40
19666;BMP180;9980;51.020;7.772;2023-05-27T11:01:53;98322.00;;;26.40
19666;BMP180;9980;51.020;7.772;2023-05-27T11:04:21;98318.00;;;26.50
19666;BMP180;9980;51.020;7.772;2023-05-27T11:07:01;98315.00;;;26.50
19666;BMP180;9980;51.020;7.772;2023-05-27T11:10:03;98321.00;;;26.60
19666;BMP180;9980;51.020;7.772;2023-05-27T11:12:32;98314.00;;;26.70
19666;BMP180;9980;51.020;7.772;2023-05-27T11:14:59;98315.00;;;26.80
19666;BMP180;9980;51.020;7.772;2023-05-27T11:17:26;98298.00;;;26.80
19666;BMP180;9980;51.020;7.772;2023-05-27T11:19:54;98305.00;;;26.90
19666;BMP180;9980;51.020;7.772;2023-05-27T11:22:22;98294.00;;;27.00
19666;BMP180;9980;51.020;7.772;2023-05-27T11:25:02;98298.00;;;27.00
19666;BMP180;9980;51.020;7.772;2023-05-27T11:27:38;98299.00;;;27.10
19666;BMP180;9980;51.020;7.772;2023-05-27T11:30:08;98282.00;;;27.20
19666;BMP180;9980;51.020;7.772;2023-05-27T11:32:41;98293.00;;;27.30
19666;BMP180;9980;51.020;7.772;2023-05-27T11:35:15;98279.00;;;27.30
19666;BMP180;9980;51.020;7.772;2023-05-27T11:37:49;98290.00;;;27.40
19666;BMP180;9980;51.020;7.772;2023-05-27T11:40:16;98281.00;;;27.40
19666;BMP180;9980;51.020;7.772;2023-05-27T11:42:44;98283.00;;;27.50
19666;BMP180;9980;51.020;7.772;2023-05-27T11:45:19;98275.00;;;27.50
19666;BMP180;9980;51.020;7.772;2023-05-27T11:47:48;98287.00;;;27.60
19666;BMP180;9980;51.020;7.772;2023-05-27T11:50:21;98285.00;;;27.70
19666;BMP180;9980;51.020;7.772;2023-05-27T11:52:52;98278.00;;;27.70
19666;BMP180;9980;51.020;7.772;2023-05-27T11:55:21;98272.00;;;27.80
19666;BMP180;9980;51.020;7.772;2023-05-27T11:57:49;98254.00;;;27.90
19666;BMP180;9980;51.020;7.772;2023-05-27T12:00:16;98260.00;;;28.00
19666;BMP180;9980;51.020;7.772;2023-05-27T12:02:44;98258.00;;;28.10
19666;BMP180;9980;51.020;7.772;2023-05-27T12:05:11;98243.00;;;28.10
19666;BMP180;9980;51.020;7.772;2023-05-27T12:07:58;98248.00;;;28.20
19666;BMP180;9980;51.020;7.772;2023-05-27T12:10:25;98232.00;;;28.20
19666;BMP180;9980;51.020;7.772;2023-05-27T12:12:52;98230.00;;;28.30
19666;BMP180;9980;51.020;7.772;2023-05-27T12:15:19;98233.00;;;28.40
19666;BMP180;9980;51.020;7.772;2023-05-27T12:17:46;98227.00;;;28.40
19666;BMP180;9980;51.020;7.772;2023-05-27T12:20:13;98230.00;;;28.50
19666;BMP180;9980;51.020;7.772;2023-05-27T12:22:40;98223.00;;;28.60
19666;BMP180;9980;51.020;7.772;2023-05-27T12:25:07;98226.00;;;28.60
19666;BMP180;9980;51.020;7.772;2023-05-27T12:27:34;98221.00;;;28.60
19666;BMP180;9980;51.020;7.772;2023-05-27T12:30:01;98216.00;;;28.60
19666;BMP180;9980;51.020;7.772;2023-05-27T12:32:28;98215.00;;;28.70
19666;BMP180;9980;51.020;7.772;2023-05-27T12:34:55;98209.00;;;28.70
19666;BMP180;9980;51.020;7.772;2023-05-27T12:37:22;98199.00;;;28.70
19666;BMP180;9980;51.020;7.772;2023-05-27T12:39:49;98211.00;;;28.80
19666;BMP180;9980;51.020;7.772;2023-05-27T12:42:16;98210.00;;;28.80
19666;BMP180;9980;51.020;7.772;2023-05-27T12:44:43;98195.00;;;28.80
19666;BMP180;9980;51.020;7.772;2023-05-27T12:47:10;98201.00;;;28.80
19666;BMP180;9980;51.020;7.772;2023-05-27T12:49:37;98208.00;;;28.90
19666;BMP180;9980;51.020;7.772;2023-05-27T12:52:05;98200.00;;;28.90
19666;BMP180;9980;51.020;7.772;2023-05-27T12:54:32;98185.00;;;29.00
19666;BMP180;9980;51.020;7.772;2023-05-27T12:57:00;98193.00;;;29.00
19666;BMP180;9980;51.020;7.772;2023-05-27T12:59:28;98179.00;;;29.10
19666;BMP180;9980;51.020;7.772;2023-05-27T13:01:55;98182.00;;;29.20
19666;BMP180;9980;51.020;7.772;2023-05-27T13:04:22;98188.00;;;29.30
19666;BMP180;9980;51.020;7.772;2023-05-27T13:06:49;98185.00;;;29.30
19666;BMP180;9980;51.020;7.772;2023-05-27T13:09:16;98171.00;;;29.40
19666;BMP180;9980;51.020;7.772;2023-05-27T13:11:43;98172.00;;;29.40
19666;BMP180;9980;51.020;7.772;2023-05-27T13:14:10;98181.00;;;29.50
19666;BMP180;9980;51.020;7.772;2023-05-27T13:16:37;98164.00;;;29.50
19666;BMP180;9980;51.020;7.772;2023-05-27T13:19:04;98176.00;;;29.60
19666;BMP180;9980;51.020;7.772;2023-05-27T13:21:31;98180.00;;;29.60
19666;BMP180;9980;51.020;7.772;2023-05-27T13:23:59;98184.00;;;29.70
19666;BMP180;9980;51.020;7.772;2023-05-27T13:26:27;98159.00;;;29.70
19666;BMP180;9980;51.020;7.772;2023-05-27T13:28:55;98169.00;;;29.70
19666;BMP180;9980;51.020;7.772;2023-05-27T13:31:22;98166.00;;;29.70
19666;BMP180;9980;51.020;7.772;2023-05-27T13:33:50;98166.00;;;29.80
19666;BMP180;9980;51.020;7.772;2023-05-27T13:36:17;98159.00;;;29.80
19666;BMP180;9980;51.020;7.772;2023-05-27T13:38:44;98158.00;;;29.80
19666;BMP180;9980;51.020;7.772;2023-05-27T13:41:10;98165.00;;;29.90
19666;BMP180;9980;51.020;7.772;2023-05-27T13:43:37;98145.00;;;29.90
19666;BMP180;9980;51.020;7.772;2023-05-27T13:46:04;98145.00;;;29.90
19666;BMP180;9980;51.020;7.772;2023-05-27T13:48:31;98135.00;;;30.00
19666;BMP180;9980;51.020;7.772;2023-05-27T13:50:58;98133.00;;;30.00
19666;BMP180;9980;51.020;7.772;2023-05-27T13:53:25;98138.00;;;30.10
19666;BMP180;9980;51.020;7.772;2023-05-27T13:55:53;98122.00;;;30.10
19666;BMP180;9980;51.020;7.772;2023-05-27T13:58:20;98126.00;;;30.10
19666;BMP180;9980;51.020;7.772;2023-05-27T14:00:47;98130.00;;;30.20
19666;BMP180;9980;51.020;7.772;2023-05-27T14:03:14;98114.00;;;30.20
19666;BMP180;9980;51.020;7.772;2023-05-27T14:05:41;98122.00;;;30.30
19666;BMP180;9980;51.020;7.772;2023-05-27T14:08:08;98109.00;;;30.30
19666;BMP180;9980;51.020;7.772;2023-05-27T14:10:35;98110.00;;;30.30
19666;BMP180;9980;51.020;7.772;2023-05-27T14:13:02;98106.00;;;30.40
19666;BMP180;9980;51.020;7.772;2023-05-27T14:15:31;98110.00;;;30.40
19666;BMP180;9980;51.020;7.772;2023-05-27T14:18:00;98108.00;;;30.40
19666;BMP180;9980;51.020;7.772;2023-05-27T14:20:28;98100.00;;;30.40
19666;BMP180;9980;51.020;7.772;2023-05-27T14:22:55;98098.00;;;30.40
19666;BMP180;9980;51.020;7.772;2023-05-27T14:25:22;98094.00;;;30.40
19666;BMP180;9980;51.020;7.772;2023-05-27T14:27:50;98103.00;;;30.40
19666;BMP180;9980;51.020;7.772;2023-05-27T14:30:17;98094.00;;;30.40
19666;BMP180;9980;51.020;7.772;2023-05-27T14:32:44;98098.00;;;30.40
19666;BMP180;9980;51.020;7.772;2023-05-27T14:35:12;98092.00;;;30.40
19666;BMP180;9980;51.020;7.772;2023-05-27T14:37:38;98087.00;;;30.40
19666;BMP180;9980;51.020;7.772;2023-05-27T14:40:06;98093.00;;;30.50
19666;BMP180;9980;51.020;7.772;2023-05-27T14:42:33;98085.00;;;30.40
19666;BMP180;9980;51.020;7.772;2023-05-27T14:45:01;98090.00;;;30.50
19666;BMP180;9980;51.020;7.772;2023-05-27T14:47:28;98085.00;;;30.40